Appam, North Dakota
Current Conditions -  °F | °C
As of 6:55 AM on Tuesday 21 Oct 2014 (Local Time) from KD50 Reporting Station
Clear Clear  
Wind Chill: 41°   Ceiling: Unl
Heat Index: 46°   Visibility: 10mi
Dew Point: 39°   Wind: 13mph
Humidity: 76%   Direction: 190°S
Pressure: 29.76"   Gusts: NA
Location:  48.59°N, 103.406°W
Report Text: KD50 211155Z AUTO 19011KT 10SM CLR 08/04 A2976 RMK AO2
Loading
Personal Weather Stations






























Interactive Weather Map New forecast layout! Learn more

10-Day Weather Forecast

Advertisements
Track Severe Weather on mobile